createdAt,value
2023-03-23T00:00:41.038Z,0.00
2023-03-23T00:01:41.066Z,0.00
2023-03-23T00:02:42.434Z,0.00
2023-03-23T00:03:41.040Z,0.00
2023-03-23T00:04:41.036Z,0.00
2023-03-23T00:05:41.181Z,0.00
2023-03-23T00:06:41.049Z,0.00
2023-03-23T00:07:41.053Z,0.00
2023-03-23T00:08:41.033Z,0.00
2023-03-23T00:09:41.019Z,0.00
2023-03-23T00:10:41.019Z,0.00
2023-03-23T00:11:41.021Z,0.00
2023-03-23T00:12:41.019Z,0.00
2023-03-23T00:13:41.008Z,0.00
2023-03-23T00:14:41.007Z,0.00
2023-03-23T00:15:41.160Z,0.00
2023-03-23T00:16:41.009Z,0.00
2023-03-23T00:17:40.991Z,0.00
2023-03-23T00:18:40.989Z,0.00
2023-03-23T00:19:40.995Z,0.00
2023-03-23T00:20:40.988Z,0.00
2023-03-23T00:21:40.980Z,0.00
2023-03-23T00:22:40.977Z,0.00
2023-03-23T00:23:40.981Z,0.00
2023-03-23T00:24:41.032Z,0.00
2023-03-23T00:25:41.108Z,0.00
2023-03-23T00:26:48.006Z,0.00
2023-03-23T00:27:40.960Z,0.00
2023-03-23T00:28:40.960Z,0.00
2023-03-23T00:29:40.948Z,0.00
2023-03-23T00:30:40.947Z,0.00
2023-03-23T00:31:40.953Z,0.00
2023-03-23T00:32:40.941Z,0.00
2023-03-23T00:33:40.945Z,0.00
2023-03-23T00:34:40.953Z,0.00
2023-03-23T00:35:41.240Z,0.00
2023-03-23T00:36:42.384Z,0.00
2023-03-23T00:37:40.932Z,0.00
2023-03-23T00:38:40.929Z,0.00
2023-03-23T00:39:40.945Z,0.00
2023-03-23T00:40:40.932Z,0.00
2023-03-23T00:41:40.913Z,0.00
2023-03-23T00:42:40.923Z,0.00
2023-03-23T00:43:40.906Z,0.00
2023-03-23T00:44:40.910Z,0.00
2023-03-23T00:45:41.038Z,0.00
2023-03-23T00:46:40.898Z,0.00
2023-03-23T00:47:40.908Z,0.00
2023-03-23T00:48:40.890Z,0.00
2023-03-23T00:49:40.895Z,0.00
2023-03-23T00:50:40.895Z,0.00
2023-03-23T00:51:40.894Z,0.00
2023-03-23T00:52:40.876Z,0.00
2023-03-23T00:53:40.878Z,0.00
2023-03-23T00:54:40.884Z,0.00
2023-03-23T00:55:41.000Z,0.00
2023-03-23T00:56:40.882Z,0.00
2023-03-23T00:57:40.881Z,0.00
2023-03-23T00:58:40.866Z,0.00
2023-03-23T00:59:40.851Z,0.00
2023-03-23T01:00:40.856Z,0.00
2023-03-23T01:01:40.861Z,0.00
2023-03-23T01:02:40.856Z,0.00
2023-03-23T01:03:40.860Z,0.00
2023-03-23T01:04:40.844Z,0.00
2023-03-23T01:05:41.036Z,0.00
2023-03-23T01:06:40.841Z,0.00
2023-03-23T01:07:40.827Z,0.00
2023-03-23T01:08:40.834Z,0.00
2023-03-23T01:09:40.830Z,0.00
2023-03-23T01:10:40.835Z,0.00
2023-03-23T01:11:40.832Z,0.00
2023-03-23T01:12:40.831Z,0.00
2023-03-23T01:13:40.821Z,0.00
2023-03-23T01:14:40.808Z,0.00
2023-03-23T01:15:40.910Z,0.00
2023-03-23T01:16:40.812Z,0.00
2023-03-23T01:17:40.796Z,0.00
2023-03-23T01:18:40.813Z,0.00
2023-03-23T01:19:40.787Z,0.00
2023-03-23T01:20:40.811Z,0.00
2023-03-23T01:21:40.796Z,0.00
2023-03-23T01:22:40.782Z,0.00
2023-03-23T01:23:40.778Z,0.00
2023-03-23T01:24:40.780Z,0.00
2023-03-23T01:25:40.918Z,0.00
2023-03-23T01:26:40.771Z,0.00
2023-03-23T01:27:40.788Z,0.00
2023-03-23T01:28:40.778Z,0.00
2023-03-23T01:29:40.773Z,0.00
2023-03-23T01:30:40.760Z,0.00
2023-03-23T01:31:40.755Z,0.00
2023-03-23T01:32:40.773Z,0.00
2023-03-23T01:33:40.754Z,0.00
2023-03-23T01:34:40.757Z,0.00
2023-03-23T01:35:40.996Z,0.00
2023-03-23T01:36:40.755Z,0.00
2023-03-23T01:37:40.734Z,0.00
2023-03-23T01:38:40.731Z,0.00
2023-03-23T01:39:40.737Z,0.00
2023-03-23T01:40:40.746Z,0.00
2023-03-23T01:41:40.725Z,0.00
2023-03-23T01:42:40.717Z,0.00
2023-03-23T01:43:40.754Z,0.00
2023-03-23T01:44:40.713Z,0.00
2023-03-23T01:45:40.798Z,0.00
2023-03-23T01:46:40.713Z,0.00
2023-03-23T01:47:40.719Z,0.00
2023-03-23T01:48:40.696Z,0.00
2023-03-23T01:49:40.701Z,0.00
2023-03-23T01:50:40.710Z,0.00
2023-03-23T01:51:42.182Z,0.00
2023-03-23T01:52:40.691Z,0.00
2023-03-23T01:53:40.706Z,0.00
2023-03-23T01:54:40.698Z,0.00
2023-03-23T01:55:40.853Z,0.00
2023-03-23T01:56:40.682Z,0.00
2023-03-23T01:57:40.688Z,0.00
2023-03-23T01:58:40.683Z,0.00
2023-03-23T01:59:40.713Z,0.00
2023-03-23T02:00:40.669Z,0.00
2023-03-23T02:01:40.682Z,0.00
2023-03-23T02:02:40.671Z,0.00
2023-03-23T02:03:40.681Z,0.00
2023-03-23T02:04:40.660Z,0.00
2023-03-23T02:05:40.850Z,0.00
2023-03-23T02:06:40.643Z,0.00
2023-03-23T02:07:40.659Z,0.00
2023-03-23T02:08:40.651Z,0.00
2023-03-23T02:09:40.646Z,0.00
2023-03-23T02:10:40.662Z,0.00
2023-03-23T02:11:40.635Z,0.00
2023-03-23T02:12:40.637Z,0.00
2023-03-23T02:13:40.627Z,0.00
2023-03-23T02:14:40.649Z,0.00
2023-03-23T02:15:40.792Z,0.00
2023-03-23T02:16:40.624Z,0.00
2023-03-23T02:17:40.624Z,0.00
2023-03-23T02:18:40.606Z,0.00
2023-03-23T02:19:40.640Z,0.00
2023-03-23T02:20:40.606Z,0.00
2023-03-23T02:21:40.605Z,0.00
2023-03-23T02:22:40.602Z,0.00
2023-03-23T02:23:40.605Z,0.00
2023-03-23T02:24:40.594Z,0.00
2023-03-23T02:25:40.830Z,0.00
2023-03-23T02:26:40.590Z,0.00
2023-03-23T02:27:40.588Z,0.00
2023-03-23T02:28:40.572Z,0.00
2023-03-23T02:29:40.598Z,0.00
2023-03-23T02:30:40.581Z,0.00
2023-03-23T02:31:40.605Z,0.00
2023-03-23T02:32:40.563Z,0.00
2023-03-23T02:33:40.582Z,0.00
2023-03-23T02:34:40.582Z,0.00
2023-03-23T02:35:40.778Z,0.00
2023-03-23T02:36:40.561Z,0.00
2023-03-23T02:37:40.563Z,0.00
2023-03-23T02:38:40.557Z,0.00
2023-03-23T02:39:40.566Z,0.00
2023-03-23T02:40:40.548Z,0.00
2023-03-23T02:41:40.571Z,0.00
2023-03-23T02:42:40.545Z,0.00
2023-03-23T02:43:40.543Z,0.00
2023-03-23T02:44:40.537Z,0.00
2023-03-23T02:45:40.652Z,0.00
2023-03-23T02:46:40.519Z,0.00
2023-03-23T02:47:40.542Z,0.00
2023-03-23T02:48:40.531Z,0.00
2023-03-23T02:49:40.532Z,0.00
2023-03-23T02:50:40.510Z,0.00
2023-03-23T02:51:43.387Z,0.00
2023-03-23T02:52:40.511Z,0.00
2023-03-23T02:53:40.526Z,0.00
2023-03-23T02:54:40.506Z,0.00
2023-03-23T02:55:40.645Z,0.00
2023-03-23T02:56:40.484Z,0.00
2023-03-23T02:57:40.725Z,0.00
2023-03-23T02:58:40.496Z,0.00
2023-03-23T02:59:40.499Z,0.00
2023-03-23T03:00:40.498Z,0.00
2023-03-23T03:01:40.476Z,0.00
2023-03-23T03:02:40.464Z,0.00
2023-03-23T03:03:40.490Z,0.00
2023-03-23T03:04:40.471Z,0.00
2023-03-23T03:05:40.601Z,0.00
2023-03-23T03:06:40.470Z,0.00
2023-03-23T03:07:40.452Z,0.00
2023-03-23T03:08:40.451Z,0.00
2023-03-23T03:09:40.472Z,0.00
2023-03-23T03:10:40.465Z,0.00
2023-03-23T03:11:40.443Z,0.00
2023-03-23T03:12:40.430Z,0.00
2023-03-23T03:13:40.437Z,0.00
2023-03-23T03:14:40.443Z,0.00
2023-03-23T03:15:40.598Z,0.00
2023-03-23T03:16:40.433Z,0.00
2023-03-23T03:17:40.433Z,0.00
2023-03-23T03:18:40.419Z,0.00
2023-03-23T03:19:40.453Z,0.00
2023-03-23T03:20:40.429Z,0.00
2023-03-23T03:21:40.412Z,0.00
2023-03-23T03:22:40.406Z,0.00
2023-03-23T03:23:40.418Z,0.00
2023-03-23T03:24:40.413Z,0.00
2023-03-23T03:25:40.541Z,0.00
2023-03-23T03:26:40.409Z,0.00
2023-03-23T03:27:40.393Z,0.00
2023-03-23T03:28:40.405Z,0.00
2023-03-23T03:29:40.400Z,0.00
2023-03-23T03:30:40.398Z,0.00
2023-03-23T03:31:40.381Z,0.00
2023-03-23T03:32:40.390Z,0.00
2023-03-23T03:33:40.390Z,0.00
2023-03-23T03:34:40.369Z,0.00
2023-03-23T03:35:40.774Z,0.00
2023-03-23T03:36:40.376Z,0.00
2023-03-23T03:37:40.359Z,0.00
2023-03-23T03:38:40.373Z,0.00
2023-03-23T03:39:40.455Z,0.00
2023-03-23T03:40:40.366Z,0.00
2023-03-23T03:41:40.354Z,0.00
2023-03-23T03:42:40.356Z,0.00
2023-03-23T03:43:40.358Z,0.00
2023-03-23T03:44:40.340Z,0.00
2023-03-23T03:45:40.703Z,0.00
2023-03-23T03:46:40.350Z,0.00
2023-03-23T03:47:40.333Z,0.00
2023-03-23T03:48:40.334Z,0.00
2023-03-23T03:49:40.343Z,0.00
2023-03-23T03:50:40.332Z,0.00
2023-03-23T03:51:40.348Z,0.00
2023-03-23T03:52:40.329Z,0.00
2023-03-23T03:53:40.330Z,0.00
2023-03-23T03:54:40.328Z,0.00
2023-03-23T03:55:40.510Z,0.00
2023-03-23T03:56:40.302Z,0.00
2023-03-23T03:57:40.301Z,0.00
2023-03-23T03:58:40.292Z,0.00
2023-03-23T03:59:40.314Z,0.00
2023-03-23T04:00:40.303Z,0.00
2023-03-23T04:01:40.309Z,0.00
2023-03-23T04:02:40.293Z,0.00
2023-03-23T04:03:40.280Z,0.00
2023-03-23T04:04:40.279Z,0.00
2023-03-23T04:05:40.419Z,0.00
2023-03-23T04:06:40.454Z,0.00
2023-03-23T04:07:40.310Z,0.00
2023-03-23T04:08:41.964Z,0.00
2023-03-23T04:09:40.262Z,0.00
2023-03-23T04:10:40.263Z,0.00
2023-03-23T04:11:40.274Z,0.00
2023-03-23T04:12:40.264Z,0.00
2023-03-23T04:13:40.248Z,0.00
2023-03-23T04:14:40.267Z,0.00
2023-03-23T04:15:40.461Z,0.00
2023-03-23T04:16:40.252Z,0.00
2023-03-23T04:17:40.257Z,0.00
2023-03-23T04:18:40.241Z,0.00
2023-03-23T04:19:40.253Z,0.00
2023-03-23T04:20:40.230Z,0.00
2023-03-23T04:21:40.232Z,0.00
2023-03-23T04:22:40.242Z,0.00
2023-03-23T04:23:40.237Z,0.00
2023-03-23T04:24:56.351Z,0.00
2023-03-23T04:25:40.441Z,0.00
2023-03-23T04:26:40.207Z,0.00
2023-03-23T04:27:40.255Z,0.00
2023-03-23T04:28:40.194Z,0.00
2023-03-23T04:29:40.210Z,0.00
2023-03-23T04:30:40.206Z,0.00
2023-03-23T04:31:40.199Z,0.00
2023-03-23T04:32:40.190Z,0.00
2023-03-23T04:33:58.570Z,0.00
2023-03-23T04:34:40.188Z,0.00
2023-03-23T04:35:40.599Z,0.00
2023-03-23T04:36:56.476Z,0.00
2023-03-23T04:37:40.180Z,0.00
2023-03-23T04:38:40.187Z,0.00
2023-03-23T04:39:40.201Z,0.00
2023-03-23T04:40:40.175Z,0.00
2023-03-23T04:41:40.179Z,0.00
2023-03-23T04:42:40.164Z,0.00
2023-03-23T04:43:40.158Z,0.00
2023-03-23T04:44:40.150Z,0.00
2023-03-23T04:45:40.418Z,0.00
2023-03-23T04:46:40.158Z,0.00
2023-03-23T04:47:40.141Z,0.00
2023-03-23T04:48:40.146Z,0.00
2023-03-23T04:49:40.151Z,0.00
2023-03-23T04:50:40.131Z,0.00
2023-03-23T04:51:40.136Z,0.00
2023-03-23T04:52:40.138Z,0.00
2023-03-23T04:53:40.132Z,0.00
2023-03-23T04:54:40.130Z,0.00
2023-03-23T04:55:40.350Z,0.00
2023-03-23T04:56:40.115Z,0.00
2023-03-23T04:57:40.133Z,0.00
2023-03-23T04:58:40.110Z,0.00
2023-03-23T04:59:40.104Z,0.00
2023-03-23T05:00:40.097Z,0.00
2023-03-23T05:01:40.097Z,0.00
2023-03-23T05:02:40.114Z,0.00
2023-03-23T05:03:40.118Z,0.00
2023-03-23T05:04:40.091Z,0.00
2023-03-23T05:05:40.314Z,0.00
2023-03-23T05:06:40.084Z,0.00
2023-03-23T05:07:40.081Z,0.00
2023-03-23T05:08:40.086Z,0.00
2023-03-23T05:09:40.082Z,0.00
2023-03-23T05:10:40.081Z,0.00
2023-03-23T05:11:40.101Z,0.00
2023-03-23T05:12:40.057Z,0.00
2023-03-23T05:13:40.080Z,0.00
2023-03-23T05:14:40.049Z,0.00
2023-03-23T05:15:40.270Z,0.00
2023-03-23T05:16:40.047Z,0.00
2023-03-23T05:17:40.054Z,0.00
2023-03-23T05:18:40.044Z,0.00
2023-03-23T05:19:40.071Z,0.00
2023-03-23T05:20:40.056Z,0.00
2023-03-23T05:21:40.044Z,0.00
2023-03-23T05:22:40.045Z,0.00
2023-03-23T05:23:40.062Z,0.00
2023-03-23T05:24:40.021Z,0.00
2023-03-23T05:25:40.153Z,0.00
2023-03-23T05:26:40.028Z,0.00
2023-03-23T05:27:40.047Z,0.00
2023-03-23T05:28:40.006Z,0.00
2023-03-23T05:29:40.022Z,0.00
2023-03-23T05:30:40.013Z,0.00
2023-03-23T05:31:40.014Z,0.00
2023-03-23T05:32:40.000Z,0.00
2023-03-23T05:33:40.010Z,0.00
2023-03-23T05:34:40.002Z,0.00
2023-03-23T05:35:41.103Z,4.00
2023-03-23T05:36:39.992Z,4.00
2023-03-23T05:37:39.994Z,4.00
2023-03-23T05:38:39.975Z,8.00
2023-03-23T05:39:39.982Z,4.00
2023-03-23T05:40:39.985Z,8.00
2023-03-23T05:41:39.981Z,8.00
2023-03-23T05:42:39.976Z,12.00
2023-03-23T05:43:39.998Z,12.00
2023-03-23T05:44:39.953Z,12.00
2023-03-23T05:45:40.101Z,12.00
2023-03-23T05:46:39.951Z,12.00
2023-03-23T05:47:41.243Z,8.00
2023-03-23T05:48:39.955Z,12.00
2023-03-23T05:49:39.964Z,12.00
2023-03-23T05:50:39.949Z,12.00
2023-03-23T05:51:39.954Z,12.00
2023-03-23T05:52:39.947Z,16.00
2023-03-23T05:53:39.949Z,20.00
2023-03-23T05:54:39.933Z,20.00
2023-03-23T05:55:40.159Z,20.00
2023-03-23T05:56:39.946Z,16.00
2023-03-23T05:57:39.922Z,16.00
2023-03-23T05:58:39.922Z,16.00
2023-03-23T05:59:39.930Z,16.00
2023-03-23T06:00:39.943Z,16.00
2023-03-23T06:01:39.923Z,16.00
2023-03-23T06:02:39.912Z,20.00
2023-03-23T06:03:39.903Z,20.00
2023-03-23T06:04:39.908Z,20.00
2023-03-23T06:05:40.088Z,16.00
2023-03-23T06:06:39.904Z,20.00
2023-03-23T06:07:39.901Z,20.00
2023-03-23T06:08:39.889Z,16.00
2023-03-23T06:09:39.901Z,24.00
2023-03-23T06:10:39.916Z,24.00
2023-03-23T06:11:39.878Z,28.00
2023-03-23T06:12:39.880Z,32.00
2023-03-23T06:13:39.889Z,40.00
2023-03-23T06:14:39.893Z,48.00
2023-03-23T06:15:40.147Z,52.00
2023-03-23T06:16:39.881Z,64.00
2023-03-23T06:17:39.863Z,68.00
2023-03-23T06:18:39.879Z,76.00
2023-03-23T06:19:39.872Z,72.00
2023-03-23T06:20:39.922Z,68.00
2023-03-23T06:21:39.856Z,72.00
2023-03-23T06:22:39.854Z,76.00
2023-03-23T06:23:39.848Z,84.00
2023-03-23T06:24:39.895Z,92.00
2023-03-23T06:25:40.015Z,104.00
2023-03-23T06:26:39.856Z,116.00
2023-03-23T06:27:39.858Z,116.00
2023-03-23T06:28:39.853Z,108.00
2023-03-23T06:29:39.844Z,100.00
2023-03-23T06:30:39.850Z,92.00
2023-03-23T06:31:39.865Z,84.00
2023-03-23T06:32:39.834Z,80.00
2023-03-23T06:33:39.849Z,72.00
2023-03-23T06:34:39.828Z,68.00
2023-03-23T06:35:40.124Z,72.00
2023-03-23T06:36:39.838Z,80.00
2023-03-23T06:37:39.823Z,84.00
2023-03-23T06:38:39.844Z,88.00
2023-03-23T06:39:39.814Z,96.00
2023-03-23T06:40:39.833Z,100.00
2023-03-23T06:41:39.832Z,108.00
2023-03-23T06:42:39.818Z,112.00
2023-03-23T06:43:39.810Z,124.00
2023-03-23T06:44:39.851Z,132.00
2023-03-23T06:45:39.925Z,136.00
2023-03-23T06:46:39.805Z,136.00
2023-03-23T06:47:39.832Z,136.00
2023-03-23T06:48:39.814Z,148.00
2023-03-23T06:49:39.821Z,156.00
2023-03-23T06:50:39.809Z,148.00
2023-03-23T06:51:39.806Z,140.00
2023-03-23T06:52:39.809Z,140.00
2023-03-23T06:53:39.812Z,152.00
2023-03-23T06:54:41.378Z,148.00
2023-03-23T06:55:39.961Z,132.00
2023-03-23T06:56:39.797Z,120.00
2023-03-23T06:57:39.777Z,120.00
2023-03-23T06:58:39.795Z,116.00
2023-03-23T06:59:39.770Z,112.00
2023-03-23T07:00:39.796Z,104.00
2023-03-23T07:01:39.780Z,96.00
2023-03-23T07:02:39.784Z,96.00
2023-03-23T07:03:39.800Z,92.00
2023-03-23T07:04:39.773Z,96.00
2023-03-23T07:05:40.153Z,96.00
2023-03-23T07:06:39.779Z,96.00
2023-03-23T07:07:39.764Z,100.00
2023-03-23T07:08:39.752Z,104.00
2023-03-23T07:09:43.300Z,108.00
2023-03-23T07:10:39.760Z,104.00
2023-03-23T07:11:39.744Z,104.00
2023-03-23T07:12:39.751Z,108.00
2023-03-23T07:13:39.754Z,108.00
2023-03-23T07:14:39.753Z,116.00
2023-03-23T07:15:39.987Z,124.00
2023-03-23T07:16:39.750Z,132.00
2023-03-23T07:17:39.728Z,136.00
2023-03-23T07:18:39.752Z,132.00
2023-03-23T07:19:39.774Z,112.00
2023-03-23T07:20:39.744Z,108.00
2023-03-23T07:21:39.733Z,112.00
2023-03-23T07:22:39.728Z,128.00
2023-03-23T07:23:39.739Z,128.00
2023-03-23T07:24:39.720Z,132.00
2023-03-23T07:25:40.179Z,132.00
2023-03-23T07:26:39.723Z,140.00
2023-03-23T07:27:39.715Z,148.00
2023-03-23T07:28:39.719Z,152.00
2023-03-23T07:29:39.708Z,160.00
2023-03-23T07:30:39.713Z,160.00
2023-03-23T07:31:39.700Z,164.00
2023-03-23T07:32:39.697Z,168.00
2023-03-23T07:33:39.705Z,168.00
2023-03-23T07:34:39.699Z,172.00
2023-03-23T07:35:39.793Z,172.00
2023-03-23T07:36:39.701Z,172.00
2023-03-23T07:37:39.680Z,168.00
2023-03-23T07:38:39.694Z,160.00
2023-03-23T07:39:39.676Z,156.00
2023-03-23T07:40:39.958Z,152.00
2023-03-23T07:41:39.688Z,160.00
2023-03-23T07:42:39.673Z,156.00
2023-03-23T07:43:39.670Z,152.00
2023-03-23T07:44:39.738Z,152.00
2023-03-23T07:45:39.703Z,140.00
2023-03-23T07:46:39.697Z,144.00
2023-03-23T07:47:39.882Z,148.00
2023-03-23T07:48:39.668Z,124.00
2023-03-23T07:49:39.650Z,116.00
2023-03-23T07:50:39.667Z,148.00
2023-03-23T07:51:39.684Z,168.00
2023-03-23T07:52:39.645Z,160.00
2023-03-23T07:53:39.647Z,144.00
2023-03-23T07:54:39.656Z,124.00
2023-03-23T07:55:39.973Z,144.00
2023-03-23T07:56:39.644Z,180.00
2023-03-23T07:57:39.629Z,204.00
2023-03-23T07:58:39.631Z,212.00
2023-03-23T07:59:39.640Z,208.00
2023-03-23T08:00:39.773Z,212.00
2023-03-23T08:01:39.639Z,204.00
2023-03-23T08:02:39.646Z,196.00
2023-03-23T08:03:39.644Z,172.00
2023-03-23T08:04:39.640Z,172.00
2023-03-23T08:05:40.037Z,192.00
2023-03-23T08:06:39.634Z,204.00
2023-03-23T08:07:39.633Z,172.00
2023-03-23T08:08:39.620Z,168.00
2023-03-23T08:09:39.605Z,192.00
2023-03-23T08:10:39.790Z,220.00
2023-03-23T08:11:39.604Z,232.00
2023-03-23T08:12:39.615Z,228.00
2023-03-23T08:13:39.661Z,224.00
2023-03-23T08:14:39.605Z,232.00
2023-03-23T08:15:39.683Z,216.00
2023-03-23T08:16:39.598Z,188.00
2023-03-23T08:17:39.584Z,212.00
2023-03-23T08:18:39.600Z,164.00
2023-03-23T08:19:39.572Z,180.00
2023-03-23T08:20:39.594Z,200.00
2023-03-23T08:21:39.587Z,188.00
2023-03-23T08:22:51.295Z,204.00
2023-03-23T08:23:39.598Z,208.00
2023-03-23T08:24:39.584Z,172.00
2023-03-23T08:25:39.632Z,188.00
2023-03-23T08:26:39.558Z,180.00
2023-03-23T08:27:39.573Z,160.00
2023-03-23T08:28:39.576Z,168.00
2023-03-23T08:29:39.554Z,168.00
2023-03-23T08:30:39.571Z,184.00
2023-03-23T08:31:39.561Z,216.00
2023-03-23T08:32:39.575Z,228.00
2023-03-23T08:33:39.554Z,216.00
2023-03-23T08:34:39.548Z,200.00
2023-03-23T08:35:39.726Z,224.00
2023-03-23T08:36:39.533Z,240.00
2023-03-23T08:37:39.529Z,216.00
2023-03-23T08:38:39.546Z,172.00
2023-03-23T08:39:39.571Z,200.00
2023-03-23T08:40:39.526Z,228.00
2023-03-23T08:41:39.519Z,204.00
2023-03-23T08:42:39.535Z,204.00
2023-03-23T08:43:39.522Z,200.00
2023-03-23T08:44:39.525Z,212.00
2023-03-23T08:45:39.740Z,228.00
2023-03-23T08:46:39.523Z,224.00
2023-03-23T08:47:39.514Z,212.00
2023-03-23T08:48:39.502Z,216.00
2023-03-23T08:49:39.510Z,256.00
2023-03-23T08:50:39.513Z,276.00
2023-03-23T08:51:39.510Z,240.00
2023-03-23T08:52:39.491Z,208.00
2023-03-23T08:53:39.487Z,200.00
2023-03-23T08:54:39.507Z,176.00
2023-03-23T08:55:39.814Z,156.00
2023-03-23T08:56:39.506Z,140.00
2023-03-23T08:57:39.497Z,144.00
2023-03-23T08:58:39.490Z,176.00
2023-03-23T08:59:39.482Z,172.00
2023-03-23T09:01:39.484Z,152.00
2023-03-23T09:02:39.477Z,116.00
2023-03-23T09:03:39.472Z,112.00
2023-03-23T09:04:39.494Z,136.00
2023-03-23T09:05:39.529Z,152.00
2023-03-23T09:06:39.460Z,180.00
2023-03-23T09:07:39.464Z,168.00
2023-03-23T09:08:39.472Z,176.00
2023-03-23T09:09:39.448Z,220.00
2023-03-23T09:10:39.450Z,260.00
2023-03-23T09:11:39.471Z,236.00
2023-03-23T09:12:39.457Z,236.00
2023-03-23T09:13:39.456Z,280.00
2023-03-23T09:14:39.436Z,284.00
2023-03-23T09:15:46.508Z,256.00
2023-03-23T09:16:39.431Z,232.00
2023-03-23T09:17:39.431Z,276.00
2023-03-23T09:18:39.452Z,300.00
2023-03-23T09:19:39.440Z,272.00
2023-03-23T09:20:39.424Z,288.00
2023-03-23T09:21:39.445Z,272.00
2023-03-23T09:22:39.425Z,284.00
2023-03-23T09:23:39.426Z,336.00
2023-03-23T09:24:39.416Z,376.00
2023-03-23T09:25:39.586Z,376.00
2023-03-23T09:26:39.408Z,336.00
2023-03-23T09:27:39.473Z,308.00
2023-03-23T09:28:39.409Z,336.00
2023-03-23T09:29:39.404Z,356.00
2023-03-23T09:30:51.354Z,368.00
2023-03-23T09:31:39.394Z,340.00
2023-03-23T09:32:39.407Z,340.00
2023-03-23T09:33:39.402Z,388.00
2023-03-23T09:34:39.389Z,372.00
2023-03-23T09:35:39.429Z,336.00
2023-03-23T09:36:39.397Z,316.00
2023-03-23T09:37:39.395Z,312.00
2023-03-23T09:38:39.391Z,300.00
2023-03-23T09:39:39.389Z,320.00
2023-03-23T09:40:39.376Z,344.00
2023-03-23T09:41:39.382Z,304.00
2023-03-23T09:42:39.381Z,276.00
2023-03-23T09:43:39.386Z,276.00
2023-03-23T09:44:39.380Z,340.00
2023-03-23T09:45:39.459Z,372.00
2023-03-23T09:46:39.379Z,336.00
2023-03-23T09:47:39.364Z,328.00
2023-03-23T09:48:39.351Z,332.00
2023-03-23T09:49:42.245Z,284.00
2023-03-23T09:50:39.448Z,284.00
2023-03-23T09:51:39.410Z,324.00
2023-03-23T09:52:39.351Z,324.00
2023-03-23T09:53:39.352Z,300.00
2023-03-23T09:54:39.338Z,264.00
2023-03-23T09:55:39.385Z,248.00
2023-03-23T09:56:39.349Z,264.00
2023-03-23T09:57:39.338Z,264.00
2023-03-23T09:58:39.339Z,252.00
2023-03-23T10:13:08.570Z,368.00
2023-03-23T10:14:08.555Z,440.00
2023-03-23T10:15:08.564Z,524.00
2023-03-23T10:16:08.558Z,584.00
2023-03-23T10:17:10.103Z,604.00
2023-03-23T10:18:08.549Z,596.00
2023-03-23T10:19:08.539Z,584.00
2023-03-23T10:20:08.539Z,592.00
2023-03-23T10:21:08.543Z,528.00
2023-03-23T10:22:08.529Z,408.00
2023-03-23T10:23:08.527Z,332.00
2023-03-23T10:24:08.528Z,408.00
2023-03-23T10:25:08.517Z,416.00
2023-03-23T10:26:08.512Z,352.00
2023-03-23T10:27:08.509Z,240.00
2023-03-23T10:28:08.500Z,180.00
2023-03-23T10:29:08.537Z,172.00
2023-03-23T10:30:08.523Z,144.00
2023-03-23T10:31:08.504Z,136.00
2023-03-23T10:32:08.488Z,144.00
2023-03-23T10:33:08.496Z,176.00
2023-03-23T10:34:08.489Z,168.00
2023-03-23T10:35:08.495Z,124.00
2023-03-23T10:36:08.485Z,116.00
2023-03-23T10:37:08.511Z,156.00
2023-03-23T10:38:08.491Z,148.00
2023-03-23T10:39:08.481Z,120.00
2023-03-23T10:40:08.493Z,124.00
2023-03-23T10:41:08.478Z,132.00
2023-03-23T10:42:08.484Z,108.00
2023-03-23T10:43:08.487Z,92.00
2023-03-23T10:44:08.468Z,112.00
2023-03-23T10:45:08.494Z,120.00
2023-03-23T10:46:08.483Z,148.00
2023-03-23T10:47:08.474Z,144.00
2023-03-23T10:48:08.454Z,160.00
2023-03-23T10:49:08.461Z,160.00
2023-03-23T10:50:08.452Z,180.00
2023-03-23T10:51:08.463Z,236.00
2023-03-23T10:52:08.459Z,180.00
2023-03-23T10:53:08.463Z,148.00
2023-03-23T10:54:10.705Z,156.00
2023-03-23T10:55:08.450Z,160.00
2023-03-23T10:56:08.451Z,160.00
2023-03-23T10:57:08.444Z,228.00
2023-03-23T10:58:08.435Z,260.00
2023-03-23T10:59:08.447Z,296.00
2023-03-23T11:00:08.432Z,364.00
2023-03-23T11:01:08.470Z,420.00
2023-03-23T11:02:09.325Z,296.00
2023-03-23T11:03:08.427Z,336.00
2023-03-23T11:04:08.429Z,344.00
2023-03-23T11:05:09.661Z,392.00
2023-03-23T11:06:08.427Z,308.00
2023-03-23T11:07:08.413Z,268.00
2023-03-23T11:08:08.426Z,336.00
2023-03-23T11:09:08.420Z,340.00
2023-03-23T11:10:08.421Z,344.00
2023-03-23T11:11:08.405Z,368.00
2023-03-23T11:12:08.639Z,356.00
2023-03-23T11:13:08.388Z,348.00
2023-03-23T11:14:08.407Z,348.00
2023-03-23T11:15:08.387Z,388.00
2023-03-23T11:16:08.385Z,432.00
2023-03-23T11:17:15.843Z,500.00
2023-03-23T11:18:08.389Z,372.00
2023-03-23T11:19:08.378Z,324.00
2023-03-23T11:20:08.392Z,464.00
2023-03-23T11:21:08.390Z,388.00
2023-03-23T11:22:08.360Z,380.00
2023-03-23T11:23:08.375Z,408.00
2023-03-23T11:24:10.177Z,216.00
2023-03-23T11:25:08.361Z,136.00
2023-03-23T11:26:08.357Z,156.00
2023-03-23T11:27:08.358Z,152.00
2023-03-23T11:28:08.366Z,204.00
2023-03-23T11:29:08.360Z,228.00
2023-03-23T11:30:08.347Z,160.00
2023-03-23T11:31:08.361Z,156.00
2023-03-23T11:32:08.346Z,200.00
2023-03-23T11:33:08.378Z,312.00
2023-03-23T11:34:08.330Z,260.00
2023-03-23T11:35:16.169Z,164.00
2023-03-23T11:36:08.347Z,156.00
2023-03-23T11:37:08.357Z,220.00
2023-03-23T11:38:08.335Z,128.00
2023-03-23T11:39:08.326Z,108.00
2023-03-23T11:40:08.313Z,164.00
2023-03-23T11:41:08.342Z,172.00
2023-03-23T11:42:09.648Z,112.00
2023-03-23T11:43:08.308Z,72.00
2023-03-23T11:44:08.306Z,52.00
2023-03-23T11:45:08.318Z,36.00
2023-03-23T11:46:08.307Z,40.00
2023-03-23T11:47:08.313Z,48.00
2023-03-23T11:48:08.318Z,52.00
2023-03-23T11:49:19.019Z,52.00
2023-03-23T11:50:08.305Z,56.00
2023-03-23T11:51:08.319Z,64.00
2023-03-23T11:52:08.303Z,60.00
2023-03-23T11:53:08.286Z,56.00
2023-03-23T11:54:08.298Z,60.00
2023-03-23T11:55:08.272Z,56.00
2023-03-23T11:56:08.337Z,52.00
2023-03-23T11:57:08.277Z,76.00
2023-03-23T11:58:08.297Z,120.00
2023-03-23T11:59:08.293Z,200.00
2023-03-23T12:00:08.299Z,304.00
2023-03-23T12:01:08.263Z,372.00
2023-03-23T12:03:08.276Z,408.00
2023-03-23T12:04:08.279Z,452.00
2023-03-23T12:05:08.284Z,448.00
2023-03-23T12:06:08.262Z,364.00
2023-03-23T12:07:08.259Z,328.00
2023-03-23T12:08:08.258Z,312.00
2023-03-23T12:09:08.242Z,292.00
2023-03-23T12:10:08.251Z,348.00
2023-03-23T12:11:08.251Z,328.00
2023-03-23T12:12:08.239Z,384.00
2023-03-23T12:13:09.365Z,224.00
2023-03-23T12:14:08.230Z,212.00
2023-03-23T12:15:08.217Z,268.00
2023-03-23T12:16:08.215Z,396.00
2023-03-23T12:17:08.238Z,316.00
2023-03-23T12:18:08.216Z,268.00
2023-03-23T12:19:08.208Z,220.00
2023-03-23T12:20:08.225Z,292.00
2023-03-23T12:21:08.241Z,384.00
2023-03-23T12:22:08.220Z,464.00
2023-03-23T12:23:08.221Z,536.00
2023-03-23T12:24:08.216Z,472.00
2023-03-23T12:25:08.192Z,416.00
2023-03-23T12:26:08.205Z,380.00
2023-03-23T12:27:08.190Z,404.00
2023-03-23T12:28:50.067Z,400.00
2023-03-23T12:29:50.057Z,368.00
2023-03-23T12:30:50.067Z,412.00
2023-03-23T12:31:50.077Z,432.00
2023-03-23T12:32:50.061Z,456.00
2023-03-23T12:33:50.045Z,496.00
2023-03-23T12:34:50.045Z,468.00
2023-03-23T12:35:50.042Z,424.00
2023-03-23T12:36:50.062Z,356.00
2023-03-23T12:37:50.041Z,276.00
2023-03-23T12:38:50.028Z,412.00
2023-03-23T12:39:50.033Z,336.00
2023-03-23T12:40:50.820Z,340.00
2023-03-23T12:41:50.052Z,212.00
2023-03-23T12:42:50.050Z,264.00
2023-03-23T12:43:50.014Z,300.00
2023-03-23T12:44:50.018Z,312.00
2023-03-23T12:45:50.012Z,224.00
2023-03-23T12:46:50.601Z,220.00
2023-03-23T12:47:50.021Z,228.00
2023-03-23T12:48:50.013Z,144.00
2023-03-23T12:49:50.007Z,128.00
2023-03-23T12:50:50.025Z,156.00
2023-03-23T12:51:49.999Z,148.00
2023-03-23T12:52:50.048Z,192.00
2023-03-23T12:53:50.010Z,204.00
2023-03-23T12:54:50.002Z,204.00
2023-03-23T12:55:50.003Z,276.00
2023-03-23T12:56:50.008Z,276.00
2023-03-23T12:57:50.000Z,364.00
2023-03-23T12:58:53.354Z,300.00
2023-03-23T12:59:49.994Z,268.00
2023-03-23T13:00:49.979Z,332.00
2023-03-23T13:01:49.975Z,348.00
2023-03-23T13:02:49.973Z,308.00
2023-03-23T13:03:49.999Z,296.00
2023-03-23T13:04:50.596Z,348.00
2023-03-23T13:05:49.978Z,420.00
2023-03-23T13:06:49.974Z,388.00
2023-03-23T13:07:49.967Z,400.00
2023-03-23T13:08:49.985Z,400.00